Observation data for Turkey on 02/12/2018      Previous  Date  Next       Current Mesonet Observations  Soil Data  Daily Summary Page  Observations in Plain Language
KTUR 120600Z 21007KT M05/M14 A3025 RMK A01 T10451139  RH  049%=      5-min Rain = 0
KTUR 120605Z 21007KT M05/M14 A3025 RMK A01 T10471139  RH  049%=      5-min Rain = 0
KTUR 120610Z 22008KT M05/M14 A3025 RMK A01 T10451139  RH  049%=      5-min Rain = 0
KTUR 120615Z 22008KT M05/M14 A3026 RMK A01 T10451139  RH  048%=      5-min Rain = 0
KTUR 120620Z 23009KT M05/M14 A3026 RMK A01 T10461139  RH  049%=      5-min Rain = 0
KTUR 120625Z 23009KT M05/M14 A3025 RMK A01 T10471140  RH  049%=      5-min Rain = 0
KTUR 120630Z 23009KT M05/M14 A3026 RMK A01 T10491140  RH  050%=      5-min Rain = 0
KTUR 120635Z 23009KT M05/M14 A3026 RMK A01 T10481140  RH  049%=      5-min Rain = 0
KTUR 120640Z 23008KT M05/M14 A3026 RMK A01 T10461139  RH  049%=      5-min Rain = 0
KTUR 120645Z 24009KT M04/M14 A3025 RMK A01 T10441139  RH  048%=      5-min Rain = 0
KTUR 120650Z 23009KT M04/M14 A3026 RMK A01 T10441139  RH  048%=      5-min Rain = 0
KTUR 120655Z 24009KT M04/M14 A3026 RMK A01 T10441138  RH  049%=      5-min Rain = 0
KTUR 120700Z 24009KT M04/M14 A3026 RMK A01 T10441138  RH  049%=      5-min Rain = 0
KTUR 120705Z 24008KT M05/M14 A3026 RMK A01 T10451139  RH  048%=      5-min Rain = 0
KTUR 120710Z 24007KT M05/M14 A3027 RMK A01 T10451139  RH  049%=      5-min Rain = 0
KTUR 120715Z 24002KT M05/M14 A3027 RMK A01 T10471140  RH  049%=      5-min Rain = 0
KTUR 120720Z 13003KT M05/M14 A3027 RMK A01 T10491139  RH  050%=      5-min Rain = 0
KTUR 120725Z 17003KT M05/M14 A3027 RMK A01 T10511143  RH  049%=      5-min Rain = 0
KTUR 120730Z 14003KT M06/M15 A3027 RMK A01 T10551145  RH  050%=      5-min Rain = 0
KTUR 120735Z 15002KT M06/M14 A3027 RMK A01 T10551144  RH  050%=      5-min Rain = 0
KTUR 120740Z 12005KT M06/M15 A3027 RMK A01 T10581145  RH  051%=      5-min Rain = 0
KTUR 120745Z 12006KT M07/M15 A3027 RMK A01 T10661146  RH  054%=      5-min Rain = 0
KTUR 120750Z 12006KT M07/M15 A3027 RMK A01 T10691147  RH  055%=      5-min Rain = 0
KTUR 120755Z 12004KT M07/M14 A3027 RMK A01 T10651142  RH  055%=      5-min Rain = 0
KTUR 120800Z 13003KT M06/M14 A3028 RMK A01 T10591139  RH  054%=      5-min Rain = 0
KTUR 120805Z 13004KT M05/M14 A3028 RMK A01 T10541138  RH  053%=      5-min Rain = 0
KTUR 120810Z 13003KT M05/M14 A3028 RMK A01 T10531137  RH  052%=      5-min Rain = 0
KTUR 120815Z 14004KT M05/M14 A3029 RMK A01 T10521137  RH  052%=      5-min Rain = 0
KTUR 120820Z 14004KT M05/M14 A3029 RMK A01 T10521137  RH  052%=      5-min Rain = 0
KTUR 120825Z 14002KT M05/M14 A3029 RMK A01 T10531136  RH  053%=      5-min Rain = 0
KTUR 120830Z 12001KT M05/M13 A3029 RMK A01 T10521134  RH  054%=      5-min Rain = 0
KTUR 120835Z 10002KT M05/M13 A3029 RMK A01 T10451132  RH  051%=      5-min Rain = 0
KTUR 120840Z 09004KT M05/M14 A3029 RMK A01 T10471138  RH  050%=      5-min Rain = 0
KTUR 120845Z 09005KT M05/M13 A3029 RMK A01 T10511134  RH  053%=      5-min Rain = 0
KTUR 120850Z 10005KT M05/M13 A3029 RMK A01 T10471133  RH  052%=      5-min Rain = 0
KTUR 120855Z 11006KT M05/M13 A3029 RMK A01 T10461133  RH  051%=      5-min Rain = 0
KTUR 120900Z 11006KT M05/M13 A3028 RMK A01 T10481133  RH  052%=      5-min Rain = 0
KTUR 120905Z 12006KT M05/M13 A3029 RMK A01 T10511134  RH  053%=      5-min Rain = 0
KTUR 120910Z 13006KT M05/M14 A3029 RMK A01 T10521135  RH  053%=      5-min Rain = 0
KTUR 120915Z 13006KT M05/M14 A3029 RMK A01 T10541136  RH  053%=      5-min Rain = 0
KTUR 120920Z 13007KT M05/M14 A3029 RMK A01 T10541136  RH  053%=      5-min Rain = 0
KTUR 120925Z 13006KT M06/M14 A3029 RMK A01 T10561136  RH  054%=      5-min Rain = 0
KTUR 120930Z 13006KT M06/M14 A3029 RMK A01 T10551135  RH  054%=      5-min Rain = 0
KTUR 120935Z 14007KT M06/M14 A3029 RMK A01 T10561136  RH  054%=      5-min Rain = 0
KTUR 120940Z 14007KT M06/M14 A3029 RMK A01 T10591138  RH  055%=      5-min Rain = 0
KTUR 120945Z 15007KT M06/M14 A3029 RMK A01 T10641140  RH  056%=      5-min Rain = 0
KTUR 120950Z 15007KT M07/M14 A3029 RMK A01 T10661141  RH  056%=      5-min Rain = 0
KTUR 120955Z 16006KT M07/M14 A3029 RMK A01 T10681141  RH  057%=      5-min Rain = 0
KTUR 121000Z 17006KT M07/M14 A3029 RMK A01 T10691141  RH  057%=      5-min Rain = 0
KTUR 121005Z 16006KT M07/M14 A303 RMK A01 T10731144  RH  058%=      5-min Rain = 0
KTUR 121010Z 16005KT M08/M15 A303 RMK A01 T10761146  RH  058%=      5-min Rain = 0
KTUR 121015Z 17004KT M08/M15 A303 RMK A01 T10801145  RH  060%=      5-min Rain = 0
KTUR 121020Z 18003KT M08/M14 A3031 RMK A01 T10801143  RH  061%=      5-min Rain = 0
KTUR 121025Z 17003KT M07/M14 A303 RMK A01 T10741141  RH  060%=      5-min Rain = 0
KTUR 121030Z 17003KT M07/M14 A303 RMK A01 T10691140  RH  058%=      5-min Rain = 0
KTUR 121035Z 17003KT M07/M14 A303 RMK A01 T10671140  RH  057%=      5-min Rain = 0
KTUR 121040Z 17002KT M07/M14 A303 RMK A01 T10661140  RH  056%=      5-min Rain = 0
KTUR 121045Z 17001KT M07/M14 A303 RMK A01 T10651139  RH  056%=      5-min Rain = 0
KTUR 121050Z 16001KT M07/M14 A303 RMK A01 T10651139  RH  056%=      5-min Rain = 0
KTUR 121055Z 15001KT M06/M14 A303 RMK A01 T10641138  RH  056%=      5-min Rain = 0
KTUR 121100Z 15000KT M06/M14 A3031 RMK A01 T10631138  RH  056%=      5-min Rain = 0
KTUR 121105Z 00000KT M06/M14 A3031 RMK A01 T10621138  RH  056%=      5-min Rain = 0
KTUR 121110Z 15000KT M06/M14 A3031 RMK A01 T10641139  RH  056%=      5-min Rain = 0
KTUR 121115Z 15001KT M07/M14 A3031 RMK A01 T10651138  RH  057%=      5-min Rain = 0
KTUR 121120Z 16003KT M07/M14 A3031 RMK A01 T10651137  RH  058%=      5-min Rain = 0
KTUR 121125Z 18003KT M06/M14 A3032 RMK A01 T10621136  RH  056%=      5-min Rain = 0
KTUR 121130Z 18004KT M06/M14 A3032 RMK A01 T10621139  RH  056%=      5-min Rain = 0
KTUR 121135Z 17002KT M07/M14 A3032 RMK A01 T10651141  RH  056%=      5-min Rain = 0
KTUR 121140Z 16002KT M07/M14 A3032 RMK A01 T10661140  RH  057%=      5-min Rain = 0
KTUR 121145Z 18002KT M06/M14 A3032 RMK A01 T10641139  RH  056%=      5-min Rain = 0
KTUR 121150Z 17002KT M06/M14 A3032 RMK A01 T10621139  RH  055%=      5-min Rain = 0
KTUR 121155Z 15003KT M06/M14 A3032 RMK A01 T10611139  RH  055%=      5-min Rain = 0
KTUR 121200Z 14003KT M06/M14 A3032 RMK A01 T10611139  RH  055%=      5-min Rain = 0
KTUR 121205Z 09003KT M06/M14 A3032 RMK A01 T10621139  RH  056%=      5-min Rain = 0
KTUR 121210Z 06004KT M07/M14 A3033 RMK A01 T10731143  RH  058%=      5-min Rain = 0
KTUR 121215Z 07005KT M09/M15 A3032 RMK A01 T10861150  RH  061%=      5-min Rain = 0
KTUR 121220Z 07006KT M09/M15 A3032 RMK A01 T10891145  RH  065%=      5-min Rain = 0
KTUR 121225Z 07006KT M09/M14 A3032 RMK A01 T10861141  RH  065%=      5-min Rain = 0
KTUR 121230Z 08006KT M08/M14 A3033 RMK A01 T10821140  RH  064%=      5-min Rain = 0
KTUR 121235Z 10005KT M08/M14 A3033 RMK A01 T10811139  RH  064%=      5-min Rain = 0
KTUR 121240Z 10006KT M08/M14 A3033 RMK A01 T10781138  RH  063%=      5-min Rain = 0
KTUR 121245Z 10007KT M08/M14 A3033 RMK A01 T10781138  RH  063%=      5-min Rain = 0
KTUR 121250Z 09007KT M08/M14 A3033 RMK A01 T10781137  RH  063%=      5-min Rain = 0
KTUR 121255Z 10007KT M08/M14 A3033 RMK A01 T10771137  RH  063%=      5-min Rain = 0
KTUR 121300Z 10006KT M08/M14 A3033 RMK A01 T10781137  RH  064%=      5-min Rain = 0
KTUR 121305Z 09006KT M08/M14 A3034 RMK A01 T10801138  RH  064%=      5-min Rain = 0
KTUR 121310Z 09006KT M08/M14 A3034 RMK A01 T10811138  RH  064%=      5-min Rain = 0
KTUR 121315Z 08005KT M08/M14 A3034 RMK A01 T10811138  RH  064%=      5-min Rain = 0
KTUR 121320Z 09006KT M08/M14 A3034 RMK A01 T10791137  RH  064%=      5-min Rain = 0
KTUR 121325Z 09006KT M08/M14 A3034 RMK A01 T10781135  RH  065%=      5-min Rain = 0
KTUR 121330Z 09006KT M08/M13 A3035 RMK A01 T10761134  RH  064%=      5-min Rain = 0
KTUR 121335Z 09005KT M07/M13 A3035 RMK A01 T10731133  RH  063%=      5-min Rain = 0
KTUR 121340Z 10004KT M07/M13 A3035 RMK A01 T10711132  RH  062%=      5-min Rain = 0
KTUR 121345Z 11003KT M07/M13 A3036 RMK A01 T10691132  RH  062%=      5-min Rain = 0
KTUR 121350Z 11003KT M07/M13 A3036 RMK A01 T10681132  RH  061%=      5-min Rain = 0
KTUR 121355Z 12004KT M07/M13 A3036 RMK A01 T10671132  RH  061%=      5-min Rain = 0
KTUR 121400Z 11003KT M07/M13 A3036 RMK A01 T10661131  RH  061%=      5-min Rain = 0
KTUR 121405Z 12003KT M07/M13 A3037 RMK A01 T10651131  RH  060%=      5-min Rain = 0
KTUR 121410Z 12003KT M06/M13 A3036 RMK A01 T10641131  RH  060%=      5-min Rain = 0
KTUR 121415Z 11004KT M06/M13 A3036 RMK A01 T10631130  RH  060%=      5-min Rain = 0
KTUR 121420Z 09004KT M06/M13 A3036 RMK A01 T10611129  RH  059%=      5-min Rain = 0
KTUR 121425Z 09004KT M06/M13 A3036 RMK A01 T10601130  RH  059%=      5-min Rain = 0
KTUR 121430Z 08003KT M06/M13 A3036 RMK A01 T10601129  RH  059%=      5-min Rain = 0
KTUR 121435Z 07004KT M06/M13 A3036 RMK A01 T10601129  RH  059%=      5-min Rain = 0
KTUR 121440Z 07003KT M06/M13 A3036 RMK A01 T10581129  RH  058%=      5-min Rain = 0
KTUR 121445Z 06003KT M06/M13 A3036 RMK A01 T10561127  RH  058%=      5-min Rain = 0
KTUR 121450Z 07004KT M05/M13 A3036 RMK A01 T10531125  RH  058%=      5-min Rain = 0
KTUR 121455Z 07004KT M05/M12 A3036 RMK A01 T10491123  RH  057%=      5-min Rain = 0
KTUR 121500Z 08004KT M04/M12 A3037 RMK A01 T10441120  RH  056%=      5-min Rain = 0
KTUR 121505Z 09004KT M04/M12 A3038 RMK A01 T10421121  RH  055%=      5-min Rain = 0
KTUR 121510Z 09004KT M04/M12 A3038 RMK A01 T10411119  RH  055%=      5-min Rain = 0
KTUR 121515Z 09004KT M04/M12 A3038 RMK A01 T10381118  RH  054%=      5-min Rain = 0
KTUR 121520Z 10004KT M04/M12 A3038 RMK A01 T10361119  RH  054%=      5-min Rain = 0
KTUR 121525Z 10005KT M04/M12 A3037 RMK A01 T10351118  RH  054%=      5-min Rain = 0
KTUR 121530Z 11005KT M03/M12 A3038 RMK A01 T10291115  RH  052%=      5-min Rain = 0
KTUR 121535Z 11006KT M03/M12 A3038 RMK A01 T10281116  RH  051%=      5-min Rain = 0
KTUR 121540Z 12005KT M03/M12 A3038 RMK A01 T10301116  RH  052%=      5-min Rain = 0
KTUR 121545Z 13006KT M03/M11 A3038 RMK A01 T10271114  RH  052%=      5-min Rain = 0
KTUR 121550Z 12006KT M02/M12 A3038 RMK A01 T10241115  RH  050%=      5-min Rain = 0
KTUR 121555Z 13006KT M03/M12 A3038 RMK A01 T10281116  RH  051%=      5-min Rain = 0
KTUR 121600Z 13004KT M02/M11 A3038 RMK A01 T10221114  RH  050%=      5-min Rain = 0
KTUR 121605Z 13005KT M02/M11 A3038 RMK A01 T10181114  RH  049%=      5-min Rain = 0
KTUR 121610Z 15005KT M01/M11 A3039 RMK A01 T10141113  RH  047%=      5-min Rain = 0
KTUR 121615Z 13004KT M01/M11 A3038 RMK A01 T10131113  RH  047%=      5-min Rain = 0
KTUR 121620Z 12004KT M01/M11 A3038 RMK A01 T10091111  RH  046%=      5-min Rain = 0
KTUR 121625Z 12006KT M01/M11 A3038 RMK A01 T10061112  RH  045%=      5-min Rain = 0
KTUR 121630Z 12006KT M01/M11 A3038 RMK A01 T10111112  RH  047%=      5-min Rain = 0
KTUR 121635Z 09005KT M01/M11 A3038 RMK A01 T10111112  RH  047%=      5-min Rain = 0
KTUR 121640Z 13004KT M01/M11 A3038 RMK A01 T10081111  RH  046%=      5-min Rain = 0
KTUR 121645Z 09005KT 00/M11 A3037 RMK A01 T00011107  RH  045%=      5-min Rain = 0
KTUR 121650Z 12005KT 01/M11 A3037 RMK A01 T00061109  RH  042%=      5-min Rain = 0
KTUR 121655Z 10006G13KT 00/M11 A3037 RMK A01 T00011111  RH  043%=      5-min Rain = 0
KTUR 121700Z 09005KT 00/M11 A3038 RMK A01 T00021111  RH  043%=      5-min Rain = 0
KTUR 121705Z 11007KT 01/M11 A3037 RMK A01 T00081113  RH  041%=      5-min Rain = 0
KTUR 121710Z 13007KT 01/M12 A3037 RMK A01 T00121115  RH  039%=      5-min Rain = 0
KTUR 121715Z 09007KT 01/M12 A3037 RMK A01 T00121117  RH  038%=      5-min Rain = 0
KTUR 121720Z 11007G12KT 01/M12 A3037 RMK A01 T00111118  RH  038%=      5-min Rain = 0
KTUR 121725Z 10007KT 01/M12 A3037 RMK A01 T00141120  RH  037%=      5-min Rain = 0
KTUR 121730Z 09007KT 02/M12 A3036 RMK A01 T00181121  RH  035%=      5-min Rain = 0
KTUR 121735Z 11008KT 01/M12 A3036 RMK A01 T00141124  RH  035%=      5-min Rain = 0
KTUR 121740Z 11009KT 01/M12 A3036 RMK A01 T00121120  RH  037%=      5-min Rain = 0
KTUR 121745Z 10008KT 02/M12 A3036 RMK A01 T00171120  RH  036%=      5-min Rain = 0
KTUR 121750Z 10008G13KT 02/M12 A3035 RMK A01 T00181122  RH  035%=      5-min Rain = 0
KTUR 121755Z 09005G10KT 02/M12 A3035 RMK A01 T00211120  RH  035%=      5-min Rain = 0
KTUR 121800Z 08006KT 02/M12 A3035 RMK A01 T00241122  RH  034%=      5-min Rain = 0
KTUR 121805Z 09008KT 03/M13 A3035 RMK A01 T00261126  RH  032%=      5-min Rain = 0
KTUR 121810Z 10009KT 02/M13 A3034 RMK A01 T00241126  RH  033%=      5-min Rain = 0
KTUR 121815Z 11008KT 02/M13 A3034 RMK A01 T00221126  RH  033%=      5-min Rain = 0
KTUR 121820Z 11008KT 02/M13 A3034 RMK A01 T00241125  RH  033%=      5-min Rain = 0
KTUR 121825Z 10007KT 03/M12 A3034 RMK A01 T00281123  RH  033%=      5-min Rain = 0
KTUR 121830Z 09009KT 03/M12 A3034 RMK A01 T00271124  RH  032%=      5-min Rain = 0
KTUR 121835Z 09008KT 03/M12 A3033 RMK A01 T00311122  RH  032%=      5-min Rain = 0
KTUR 121840Z 11009KT 03/M12 A3033 RMK A01 T00291124  RH  032%=      5-min Rain = 0
KTUR 121845Z 11007G12KT 03/M12 A3033 RMK A01 T00311124  RH  032%=      5-min Rain = 0
KTUR 121850Z 11006KT 04/M12 A3032 RMK A01 T00361124  RH  030%=      5-min Rain = 0
KTUR 121855Z 11007G14KT 04/M13 A3032 RMK A01 T00371125  RH  030%=      5-min Rain = 0
KTUR 121900Z 12010KT 03/M13 A3032 RMK A01 T00341129  RH  030%=      5-min Rain = 0
KTUR 121905Z 13007KT 03/M13 A3031 RMK A01 T00311130  RH  030%=      5-min Rain = 0
KTUR 121910Z 11007G13KT 04/M13 A3031 RMK A01 T00361128  RH  029%=      5-min Rain = 0
KTUR 121915Z 11009G14KT 04/M13 A3031 RMK A01 T00411128  RH  028%=      5-min Rain = 0
KTUR 121920Z 11007G12KT 04/M13 A3031 RMK A01 T00421130  RH  028%=      5-min Rain = 0
KTUR 121925Z 11006G13KT 04/M13 A303 RMK A01 T00431129  RH  028%=      5-min Rain = 0
KTUR 121930Z 10005G11KT 04/M13 A303 RMK A01 T00421128  RH  028%=      5-min Rain = 0
KTUR 121935Z 11011G18KT 05/M13 A3029 RMK A01 T00471130  RH  027%=      5-min Rain = 0
KTUR 121940Z 12007KT 05/M13 A3029 RMK A01 T00461130  RH  027%=      5-min Rain = 0
KTUR 121945Z 12009G14KT 05/M13 A3029 RMK A01 T00511130  RH  026%=      5-min Rain = 0
KTUR 121950Z 12006G13KT 05/M13 A3028 RMK A01 T00511131  RH  026%=      5-min Rain = 0
KTUR 121955Z 12009KT 05/M13 A3028 RMK A01 T00501132  RH  026%=      5-min Rain = 0
KTUR 122000Z 12010KT 06/M13 A3027 RMK A01 T00571132  RH  025%=      5-min Rain = 0
KTUR 122005Z 12008G13KT 06/M13 A3027 RMK A01 T00571132  RH  025%=      5-min Rain = 0
KTUR 122010Z 11008KT 06/M13 A3027 RMK A01 T00581131  RH  024%=      5-min Rain = 0
KTUR 122015Z 12011KT 07/M13 A3026 RMK A01 T00651133  RH  023%=      5-min Rain = 0
KTUR 122020Z 11009G14KT 07/M13 A3026 RMK A01 T00661132  RH  023%=      5-min Rain = 0
KTUR 122025Z 13008G16KT 07/M13 A3026 RMK A01 T00671133  RH  023%=      5-min Rain = 0
KTUR 122030Z 12010G16KT 07/M13 A3025 RMK A01 T00651133  RH  023%=      5-min Rain = 0
KTUR 122035Z 13010G15KT 06/M13 A3025 RMK A01 T00641133  RH  023%=      5-min Rain = 0
KTUR 122040Z 12010G17KT 07/M13 A3025 RMK A01 T00661134  RH  023%=      5-min Rain = 0
KTUR 122045Z 11011KT 07/M14 A3025 RMK A01 T00721135  RH  022%=      5-min Rain = 0
KTUR 122050Z 12012G17KT 07/M13 A3025 RMK A01 T00701134  RH  022%=      5-min Rain = 0
KTUR 122055Z 13010KT 07/M13 A3025 RMK A01 T00671133  RH  023%=      5-min Rain = 0
KTUR 122100Z 12010KT 07/M13 A3025 RMK A01 T00701134  RH  022%=      5-min Rain = 0
KTUR 122105Z 13012KT 07/M13 A3024 RMK A01 T00711134  RH  022%=      5-min Rain = 0
KTUR 122110Z 12011KT 07/M13 A3024 RMK A01 T00701133  RH  022%=      5-min Rain = 0
KTUR 122115Z 11011KT 07/M13 A3024 RMK A01 T00711130  RH  023%=      5-min Rain = 0
KTUR 122120Z 11012KT 07/M13 A3024 RMK A01 T00731131  RH  022%=      5-min Rain = 0
KTUR 122125Z 11011G20KT 07/M13 A3024 RMK A01 T00741132  RH  022%=      5-min Rain = 0
KTUR 122130Z 11011G17KT 07/M14 A3023 RMK A01 T00731135  RH  022%=      5-min Rain = 0
KTUR 122135Z 13012G17KT 07/M14 A3023 RMK A01 T00721135  RH  022%=      5-min Rain = 0
KTUR 122140Z 11011G16KT 07/M13 A3023 RMK A01 T00721134  RH  022%=      5-min Rain = 0
KTUR 122145Z 11012G17KT 08/M13 A3023 RMK A01 T00771133  RH  021%=      5-min Rain = 0
KTUR 122150Z 12011KT 07/M13 A3023 RMK A01 T00741133  RH  022%=      5-min Rain = 0
KTUR 122155Z 11011G16KT 08/M13 A3023 RMK A01 T00751133  RH  022%=      5-min Rain = 0
KTUR 122200Z 12012G18KT 07/M13 A3022 RMK A01 T00731134  RH  022%=      5-min Rain = 0
KTUR 122205Z 12012G17KT 07/M13 A3022 RMK A01 T00731134  RH  022%=      5-min Rain = 0
KTUR 122210Z 13012KT 07/M13 A3022 RMK A01 T00741131  RH  022%=      5-min Rain = 0
KTUR 122215Z 12010KT 08/M13 A3022 RMK A01 T00781129  RH  022%=      5-min Rain = 0
KTUR 122220Z 13012KT 08/M13 A3022 RMK A01 T00791132  RH  021%=      5-min Rain = 0
KTUR 122225Z 13012G18KT 08/M13 A3022 RMK A01 T00751131  RH  022%=      5-min Rain = 0
KTUR 122230Z 11012G17KT 07/M13 A3022 RMK A01 T00711131  RH  023%=      5-min Rain = 0
KTUR 122235Z 12013KT 07/M13 A3022 RMK A01 T00691132  RH  023%=      5-min Rain = 0
KTUR 122240Z 12013KT 07/M13 A3022 RMK A01 T00671132  RH  023%=      5-min Rain = 0
KTUR 122245Z 12013KT 07/M13 A3022 RMK A01 T00661130  RH  023%=      5-min Rain = 0
KTUR 122250Z 12012KT 07/M13 A3022 RMK A01 T00651129  RH  024%=      5-min Rain = 0
KTUR 122255Z 12012KT 06/M13 A3022 RMK A01 T00641128  RH  024%=      5-min Rain = 0
KTUR 122300Z 13013KT 06/M13 A3022 RMK A01 T00641126  RH  025%=      5-min Rain = 0
KTUR 122305Z 12013KT 06/M13 A3022 RMK A01 T00631125  RH  025%=      5-min Rain = 0
KTUR 122310Z 12012KT 06/M12 A3022 RMK A01 T00621124  RH  025%=      5-min Rain = 0
KTUR 122315Z 12011KT 06/M12 A3022 RMK A01 T00621123  RH  026%=      5-min Rain = 0
KTUR 122320Z 12012KT 06/M12 A3022 RMK A01 T00621122  RH  026%=      5-min Rain = 0
KTUR 122325Z 13012KT 06/M12 A3022 RMK A01 T00621121  RH  026%=      5-min Rain = 0
KTUR 122330Z 11012KT 06/M12 A3022 RMK A01 T00611120  RH  026%=      5-min Rain = 0
KTUR 122335Z 13011KT 06/M12 A3022 RMK A01 T00601119  RH  027%=      5-min Rain = 0
KTUR 122340Z 13012KT 06/M12 A3022 RMK A01 T00581118  RH  027%=      5-min Rain = 0
KTUR 122345Z 13011KT 06/M12 A3022 RMK A01 T00571118  RH  028%=      5-min Rain = 0
KTUR 122350Z 12012KT 06/M12 A3022 RMK A01 T00561117  RH  028%=      5-min Rain = 0
KTUR 122355Z 12012KT 05/M12 A3022 RMK A01 T00541117  RH  028%=      5-min Rain = 0
KTUR 130000Z 13012KT 05/M12 A3022 RMK A01 T00531116  RH  029%=      5-min Rain = 0
KTUR 130005Z 13012KT 05/M12 A3022 RMK A01 T00511116  RH  029%=      5-min Rain = 0
KTUR 130010Z 13010KT 05/M12 A3022 RMK A01 T00501116  RH  029%=      5-min Rain = 0
KTUR 130015Z 13010KT 05/M12 A3023 RMK A01 T00491115  RH  030%=      5-min Rain = 0
KTUR 130020Z 12011KT 05/M12 A3023 RMK A01 T00481115  RH  030%=      5-min Rain = 0
KTUR 130025Z 12011KT 05/M12 A3023 RMK A01 T00471115  RH  030%=      5-min Rain = 0
KTUR 130030Z 12010KT 05/M12 A3023 RMK A01 T00471115  RH  030%=      5-min Rain = 0
KTUR 130035Z 12010KT 05/M12 A3023 RMK A01 T00451115  RH  031%=      5-min Rain = 0
KTUR 130040Z 12010KT 04/M11 A3023 RMK A01 T00441114  RH  031%=      5-min Rain = 0
KTUR 130045Z 13010KT 04/M11 A3024 RMK A01 T00441113  RH  031%=      5-min Rain = 0
KTUR 130050Z 12009KT 04/M11 A3024 RMK A01 T00421113  RH  032%=      5-min Rain = 0
KTUR 130055Z 12009KT 04/M11 A3024 RMK A01 T00411114  RH  032%=      5-min Rain = 0
KTUR 130100Z 12009KT 04/M11 A3024 RMK A01 T00401113  RH  032%=      5-min Rain = 0
KTUR 130105Z 12010KT 04/M11 A3024 RMK A01 T00401113  RH  032%=      5-min Rain = 0
KTUR 130110Z 12010KT 04/M11 A3024 RMK A01 T00391113  RH  032%=      5-min Rain = 0
KTUR 130115Z 12009KT 04/M11 A3024 RMK A01 T00381113  RH  033%=      5-min Rain = 0
KTUR 130120Z 12009KT 04/M11 A3024 RMK A01 T00371112  RH  033%=      5-min Rain = 0
KTUR 130125Z 12009KT 04/M11 A3024 RMK A01 T00351112  RH  034%=      5-min Rain = 0
KTUR 130130Z 12008KT 03/M11 A3025 RMK A01 T00341111  RH  034%=      5-min Rain = 0
KTUR 130135Z 11008KT 03/M11 A3025 RMK A01 T00341111  RH  034%=      5-min Rain = 0
KTUR 130140Z 11007KT 03/M11 A3025 RMK A01 T00331111  RH  034%=      5-min Rain = 0
KTUR 130145Z 12008KT 03/M11 A3025 RMK A01 T00321111  RH  035%=      5-min Rain = 0
KTUR 130150Z 12008KT 03/M11 A3026 RMK A01 T00321110  RH  035%=      5-min Rain = 0
KTUR 130155Z 12008KT 03/M11 A3026 RMK A01 T00311110  RH  035%=      5-min Rain = 0
KTUR 130200Z 12008KT 03/M11 A3026 RMK A01 T00301110  RH  036%=      5-min Rain = 0
KTUR 130205Z 11007KT 03/M11 A3026 RMK A01 T00271109  RH  036%=      5-min Rain = 0
KTUR 130210Z 11008KT 03/M11 A3026 RMK A01 T00261109  RH  037%=      5-min Rain = 0
KTUR 130215Z 11008KT 03/M11 A3026 RMK A01 T00261109  RH  037%=      5-min Rain = 0
KTUR 130220Z 12007KT 03/M11 A3026 RMK A01 T00261109  RH  037%=      5-min Rain = 0
KTUR 130225Z 12007KT 02/M11 A3027 RMK A01 T00231109  RH  037%=      5-min Rain = 0
KTUR 130230Z 12007KT 02/M11 A3027 RMK A01 T00211109  RH  038%=      5-min Rain = 0
KTUR 130235Z 11006KT 02/M11 A3027 RMK A01 T00181110  RH  039%=      5-min Rain = 0
KTUR 130240Z 11006KT 01/M11 A3027 RMK A01 T00141111  RH  040%=      5-min Rain = 0
KTUR 130245Z 12006KT 01/M11 A3027 RMK A01 T00131110  RH  040%=      5-min Rain = 0
KTUR 130250Z 12006KT 01/M11 A3027 RMK A01 T00131110  RH  040%=      5-min Rain = 0
KTUR 130255Z 11007KT 01/M11 A3027 RMK A01 T00121110  RH  040%=      5-min Rain = 0
KTUR 130300Z 12007KT 01/M11 A3027 RMK A01 T00111110  RH  041%=      5-min Rain = 0
KTUR 130305Z 12008KT 01/M11 A3027 RMK A01 T00111110  RH  041%=      5-min Rain = 0
KTUR 130310Z 12007KT 01/M11 A3028 RMK A01 T00101110  RH  041%=      5-min Rain = 0
KTUR 130315Z 12007KT 01/M11 A3028 RMK A01 T00091109  RH  041%=      5-min Rain = 0
KTUR 130320Z 12007KT 01/M11 A3028 RMK A01 T00071110  RH  042%=      5-min Rain = 0
KTUR 130325Z 12007KT 01/M11 A3028 RMK A01 T00051110  RH  042%=      5-min Rain = 0
KTUR 130330Z 13008KT 00/M11 A3028 RMK A01 T00031110  RH  043%=      5-min Rain = 0
KTUR 130335Z 13008KT 00/M11 A3028 RMK A01 T00031109  RH  043%=      5-min Rain = 0
KTUR 130340Z 13008KT 00/M11 A3028 RMK A01 T00011110  RH  043%=      5-min Rain = 0
KTUR 130345Z 13008KT M00/M11 A3028 RMK A01 T10011110  RH  044%=      5-min Rain = 0
KTUR 130350Z 13007KT M00/M11 A3028 RMK A01 T10031111  RH  045%=      5-min Rain = 0
KTUR 130355Z 13006KT M01/M11 A3028 RMK A01 T10051111  RH  045%=      5-min Rain = 0
KTUR 130400Z 13006KT M01/M11 A3028 RMK A01 T10051110  RH  046%=      5-min Rain = 0
KTUR 130405Z 14006KT M01/M11 A3028 RMK A01 T10051110  RH  046%=      5-min Rain = 0
KTUR 130410Z 14005KT M01/M11 A3028 RMK A01 T10071110  RH  046%=      5-min Rain = 0
KTUR 130415Z 14005KT M01/M11 A3028 RMK A01 T10081110  RH  047%=      5-min Rain = 0
KTUR 130420Z 15005KT M01/M11 A3029 RMK A01 T10071109  RH  047%=      5-min Rain = 0
KTUR 130425Z 15004KT M01/M11 A3029 RMK A01 T10081109  RH  047%=      5-min Rain = 0
KTUR 130430Z 14004KT M01/M11 A3029 RMK A01 T10081108  RH  047%=      5-min Rain = 0
KTUR 130435Z 14005KT M01/M11 A3029 RMK A01 T10081107  RH  047%=      5-min Rain = 0
KTUR 130440Z 14005KT M01/M11 A3029 RMK A01 T10081107  RH  047%=      5-min Rain = 0
KTUR 130445Z 14005KT M01/M11 A3029 RMK A01 T10091107  RH  048%=      5-min Rain = 0
KTUR 130450Z 14004KT M01/M11 A3029 RMK A01 T10101107  RH  048%=      5-min Rain = 0
KTUR 130455Z 13005KT M01/M11 A3029 RMK A01 T10101106  RH  049%=      5-min Rain = 0
KTUR 130500Z 13005KT M01/M11 A3029 RMK A01 T10101106  RH  049%=      5-min Rain = 0
KTUR 130505Z 13005KT M01/M11 A3029 RMK A01 T10111106  RH  049%=      5-min Rain = 0
KTUR 130510Z 12005KT M01/M11 A3029 RMK A01 T10141106  RH  050%=      5-min Rain = 0
KTUR 130515Z 12005KT M02/M11 A3029 RMK A01 T10161106  RH  051%=      5-min Rain = 0
KTUR 130520Z 12006KT M02/M11 A3029 RMK A01 T10191106  RH  052%=      5-min Rain = 0
KTUR 130525Z 13007KT M02/M11 A3029 RMK A01 T10191105  RH  052%=      5-min Rain = 0
KTUR 130530Z 13007KT M02/M11 A3029 RMK A01 T10201107  RH  052%=      5-min Rain = 0
KTUR 130535Z 13007KT M02/M11 A3029 RMK A01 T10211106  RH  053%=      5-min Rain = 0
KTUR 130540Z 13006KT M02/M10 A3029 RMK A01 T10201103  RH  054%=      5-min Rain = 0
KTUR 130545Z 13005KT M02/M10 A303 RMK A01 T10201102  RH  054%=      5-min Rain = 0
KTUR 130550Z 12005KT M02/M10 A303 RMK A01 T10201101  RH  055%=      5-min Rain = 0
KTUR 130555Z 12006KT M02/M10 A303 RMK A01 T10221101  RH  055%=      5-min Rain = 0

Page generated in 0.0094 seconds.